»·PEaware :: ASA327 KSFO-KPDX

ASA327 :: KSFO-KPDX

FLIGHT INFORMATION

Flight Status: Arrived
Operator:
Alaska Airlines
More flights by this operator :: More flights under this callsign
Pilot: Jim M. (18055)
Aircraft: BOEING 737-800
(B738)
More flights by this aircraft type
Origin: KSFO San Francisco Intl
United States
Destination: KPDX Portland Intl
United States
More flights between these airports :: More routes between these airports
Route: TRUKN2 GRTFL MACHU TMBRS2
File this flight plan on PilotEdge
Remarks:
Altitude:
(Current/Filed)
40,000ft
Speed:
(Current/Filed)
450kts
Departed: 13-Jun-18 10:41 AM
Arrived: 13-Jun-18 12:00 PM
Distance/Time
Traveled:
478nm/1:19
Distance/Time
To Go:
Arrived

Flight Plot

Page will automatically refresh every two minutes.


Map Options




Map Legend


Flown Route
Filed Route
Departure Airport
Arrival Airport
Navaid (VOR, NDB)
Fix

Horizontal Profiles

Position Reports

Time Latitude Longitude Heading Altitude Ground
Speed
13-Jun-18 09:57 37.616439 -122.380786 340 21ft 0kts
13-Jun-18 09:58 37.616439 -122.380786 340 21ft 0kts
13-Jun-18 09:59 37.616439 -122.380786 340 21ft 0kts
13-Jun-18 10:00 37.616439 -122.380786 340 21ft 0kts
13-Jun-18 10:01 37.616439 -122.380786 340 21ft 0kts
13-Jun-18 10:02 37.616439 -122.380786 340 21ft 0kts
13-Jun-18 10:03 37.616439 -122.380786 340 21ft 0kts
13-Jun-18 10:04 37.616439 -122.380786 340 21ft 0kts
13-Jun-18 10:05 37.616439 -122.380786 340 21ft 0kts
13-Jun-18 10:06 37.616439 -122.380786 340 21ft 0kts
13-Jun-18 10:07 37.616439 -122.380786 340 21ft 0kts
13-Jun-18 10:08 37.616439 -122.380786 340 21ft 0kts
13-Jun-18 10:09 37.616439 -122.380786 340 21ft 0kts
13-Jun-18 10:10 37.616439 -122.380786 340 21ft 0kts
13-Jun-18 10:11 37.616439 -122.380786 340 21ft 0kts
13-Jun-18 10:12 37.616439 -122.380786 340 21ft 0kts
13-Jun-18 10:13 37.616439 -122.380786 340 21ft 0kts
13-Jun-18 10:14 37.616439 -122.380786 340 21ft 0kts
13-Jun-18 10:15 37.616439 -122.380786 340 21ft 0kts
13-Jun-18 10:16 37.616439 -122.380786 340 21ft 0kts
13-Jun-18 10:17 37.616439 -122.380786 340 21ft 0kts
13-Jun-18 10:18 37.616439 -122.380786 340 21ft 0kts
13-Jun-18 10:19 37.616439 -122.380786 340 21ft 0kts
13-Jun-18 10:20 37.616439 -122.380786 340 21ft 0kts
13-Jun-18 10:21 37.616439 -122.380786 340 21ft 0kts
13-Jun-18 10:22 37.616439 -122.380786 340 21ft 0kts
13-Jun-18 10:23 37.616439 -122.380786 340 21ft 0kts
13-Jun-18 10:24 37.616439 -122.380786 340 21ft 0kts
13-Jun-18 10:25 37.616439 -122.380786 340 21ft 0kts
13-Jun-18 10:26 37.616193 -122.380678 340 21ft 2kts
13-Jun-18 10:27 37.615579 -122.380090 286 21ft 2kts
13-Jun-18 10:28 37.615575 -122.379647 256 21ft 0kts
13-Jun-18 10:29 37.615574 -122.379650 256 21ft 0kts
13-Jun-18 10:30 37.615574 -122.379653 255 21ft 0kts
13-Jun-18 10:31 37.615573 -122.379656 255 21ft 0kts
13-Jun-18 10:32 37.615573 -122.379658 255 21ft 0kts
13-Jun-18 10:33 37.615572 -122.379661 255 21ft 0kts
13-Jun-18 10:34 37.615571 -122.379926 270 21ft 5kts
13-Jun-18 10:35 37.614701 -122.380905 210 21ft 3kts
13-Jun-18 10:36 37.613430 -122.381755 208 21ft 6kts
13-Jun-18 10:37 37.611701 -122.382873 206 21ft 7kts
13-Jun-18 10:38 37.610284 -122.383856 209 21ft 5kts
13-Jun-18 10:39 37.609312 -122.383652 156 21ft 0kts
13-Jun-18 10:40 37.608756 -122.382963 106 21ft 4kts
13-Jun-18 10:41 37.620759 -122.374510 26 21ft 144kts
13-Jun-18 10:42 37.655489 -122.331623 53 1780ft 217kts
13-Jun-18 10:43 37.694378 -122.259314 55 4359ft 256kts
13-Jun-18 10:44 37.752053 -122.217809 1 7616ft 258kts
13-Jun-18 10:45 37.825326 -122.218093 358 10607ft 266kts
13-Jun-18 10:46 37.900230 -122.219683 0 13594ft 274kts
13-Jun-18 10:47 37.982995 -122.221702 359 15373ft 332kts
13-Jun-18 10:48 38.084858 -122.224336 359 16736ft 389kts
13-Jun-18 10:49 38.195210 -122.227263 359 19117ft 402kts
13-Jun-18 10:50 38.308853 -122.230306 359 21253ft 415kts
13-Jun-18 10:51 38.425968 -122.237932 355 23088ft 428kts
13-Jun-18 10:52 38.546460 -122.251234 356 24727ft 439kts
13-Jun-18 10:53 38.669559 -122.264372 356 26191ft 449kts
13-Jun-18 10:54 38.795295 -122.277588 356 27517ft 458kts
13-Jun-18 10:55 38.923218 -122.291031 355 29044ft 458kts
13-Jun-18 10:56 39.049801 -122.304373 355 30715ft 454kts
13-Jun-18 10:57 39.174860 -122.317597 355 32356ft 448kts
13-Jun-18 10:58 39.298660 -122.330735 355 33899ft 442kts
13-Jun-18 10:59 39.420931 -122.343755 355 35176ft 441kts
13-Jun-18 11:00 39.543224 -122.356825 355 36324ft 440kts
13-Jun-18 11:01 39.664815 -122.369865 355 37378ft 439kts
13-Jun-18 11:02 39.786165 -122.382925 355 38335ft 438kts
13-Jun-18 11:03 39.907801 -122.396063 355 39197ft 437kts
13-Jun-18 11:04 40.029295 -122.409235 355 39882ft 439kts
13-Jun-18 11:05 40.151288 -122.422504 355 39882ft 439kts
13-Jun-18 11:06 40.273308 -122.435825 355 39879ft 439kts
13-Jun-18 11:07 40.394936 -122.449154 355 39873ft 439kts
13-Jun-18 11:08 40.516554 -122.462527 355 39868ft 439kts
13-Jun-18 11:09 40.638830 -122.476023 355 39879ft 440kts
13-Jun-18 11:10 40.760715 -122.489525 355 39901ft 440kts
13-Jun-18 11:11 40.882795 -122.503099 355 39920ft 441kts
13-Jun-18 11:12 41.005443 -122.516787 355 39938ft 441kts
13-Jun-18 11:13 41.127716 -122.530484 355 39957ft 441kts
13-Jun-18 11:14 41.250023 -122.544207 355 39974ft 442kts
13-Jun-18 11:15 41.372804 -122.558069 355 39978ft 442kts
13-Jun-18 11:16 41.495203 -122.571959 355 39968ft 442kts
13-Jun-18 11:17 41.617677 -122.581684 357 39955ft 441kts
13-Jun-18 11:18 41.740544 -122.589443 357 39950ft 441kts
13-Jun-18 11:19 41.862975 -122.597382 357 39950ft 441kts
13-Jun-18 11:20 41.985462 -122.605387 357 39945ft 441kts
13-Jun-18 11:21 42.108346 -122.613495 358 39933ft 441kts
13-Jun-18 11:22 42.230849 -122.621622 358 39907ft 441kts
13-Jun-18 11:23 42.353441 -122.629813 358 39888ft 441kts
13-Jun-18 11:24 42.476501 -122.638070 358 39899ft 442kts
13-Jun-18 11:25 42.599269 -122.646281 358 39912ft 442kts
13-Jun-18 11:26 42.722130 -122.654578 358 39897ft 443kts
13-Jun-18 11:27 42.845528 -122.662954 358 39905ft 443kts
13-Jun-18 11:28 42.968756 -122.671349 358 39734ft 446kts
13-Jun-18 11:29 43.092510 -122.679803 358 38733ft 444kts
13-Jun-18 11:30 43.216074 -122.688264 358 37735ft 446kts
13-Jun-18 11:31 43.340203 -122.696826 359 36738ft 448kts
13-Jun-18 11:32 43.465401 -122.705469 359 35738ft 450kts
13-Jun-18 11:33 43.590852 -122.714150 359 34740ft 453kts
13-Jun-18 11:34 43.716684 -122.722896 0 33004ft 453kts
13-Jun-18 11:35 43.843530 -122.731694 0 29823ft 458kts
13-Jun-18 11:36 43.969003 -122.740453 0 27361ft 444kts
13-Jun-18 11:37 44.090406 -122.748997 359 25054ft 431kts
13-Jun-18 11:38 44.208912 -122.749088 6 23002ft 423kts
13-Jun-18 11:39 44.324359 -122.736318 6 21148ft 411kts
13-Jun-18 11:40 44.436241 -122.724987 6 19365ft 393kts
13-Jun-18 11:41 44.540287 -122.714613 6 17669ft 362kts
13-Jun-18 11:42 44.638622 -122.704799 6 16284ft 346kts
13-Jun-18 11:43 44.733683 -122.695238 5 14731ft 339kts
13-Jun-18 11:44 44.826753 -122.685869 5 12800ft 330kts
13-Jun-18 11:45 44.913020 -122.677182 5 11478ft 302kts
13-Jun-18 11:46 44.996188 -122.668782 5 10438ft 300kts
13-Jun-18 11:47 45.078646 -122.660423 4 9273ft 293kts
13-Jun-18 11:48 45.158908 -122.652238 4 8141ft 285kts
13-Jun-18 11:49 45.236854 -122.643716 10 7036ft 277kts
13-Jun-18 11:50 45.303881 -122.594967 34 6120ft 266kts
13-Jun-18 11:51 45.361999 -122.537161 59 5290ft 245kts
13-Jun-18 11:52 45.378579 -122.464433 74 4692ft 228kts
13-Jun-18 11:53 45.398268 -122.365177 72 3834ft 205kts
13-Jun-18 11:54 45.442544 -122.324746 24 2931ft 190kts
13-Jun-18 11:55 45.488602 -122.347823 307 2834ft 194kts
13-Jun-18 11:56 45.513492 -122.411962 298 2699ft 166kts
13-Jun-18 11:57 45.535214 -122.467769 298 1839ft 156kts
13-Jun-18 11:58 45.556084 -122.521240 298 1030ft 151kts
13-Jun-18 11:59 45.572850 -122.564067 295 356ft 145kts
13-Jun-18 12:00 45.585841 -122.597574 298 38ft 10kts
13-Jun-18 12:01 45.587421 -122.597397 25 38ft 6kts
13-Jun-18 12:02 45.588572 -122.599088 296 38ft 6kts
13-Jun-18 12:03 45.590165 -122.601012 33 38ft 12kts
13-Jun-18 12:04 45.589699 -122.595914 213 38ft 5kts
13-Jun-18 12:05 45.589544 -122.596053 211 38ft 0kts

Navigation Log

Ident Type
1. KSFO Airport
2. KPDX Airport